createdAt,value
2022-09-15T00:01:35.891Z,100406.75
2022-09-15T00:04:05.831Z,100406.50
2022-09-15T00:06:34.649Z,100403.88
2022-09-15T00:09:03.212Z,100407.31
2022-09-15T00:11:33.621Z,100408.34
2022-09-15T00:14:05.910Z,100410.72
2022-09-15T00:16:34.724Z,100409.16
2022-09-15T00:19:03.671Z,100403.88
2022-09-15T00:21:33.426Z,100407.22
2022-09-15T00:24:03.642Z,100396.41
2022-09-15T00:26:32.814Z,100393.81
2022-09-15T00:29:03.997Z,100395.97
2022-09-15T00:31:33.540Z,100398.09
2022-09-15T00:34:04.118Z,100398.34
2022-09-15T00:36:32.986Z,100393.09
2022-09-15T00:39:01.443Z,100388.63
2022-09-15T00:41:30.290Z,100385.22
2022-09-15T00:44:00.770Z,100382.59
2022-09-15T00:46:32.770Z,100372.88
2022-09-15T00:49:05.301Z,100379.72
2022-09-15T00:51:40.030Z,100372.63
2022-09-15T00:54:15.506Z,100375.25
2022-09-15T00:56:45.515Z,100372.88
2022-09-15T00:59:19.271Z,100374.47
2022-09-15T01:01:56.321Z,100376.28
2022-09-15T01:04:25.042Z,100376.28
2022-09-15T01:06:58.626Z,100367.63
2022-09-15T01:09:32.593Z,100367.63
2022-09-15T01:12:01.350Z,100366.81
2022-09-15T01:14:29.839Z,100362.13
2022-09-15T01:17:07.187Z,100356.06
2022-09-15T01:20:20.199Z,100348.75
2022-09-15T01:23:05.820Z,100343.44
2022-09-15T01:25:56.163Z,100332.94
2022-09-15T01:28:45.797Z,100333.97
2022-09-15T01:31:24.772Z,100333.97
2022-09-15T01:33:55.447Z,100329.19
2022-09-15T01:36:31.839Z,100336.25
2022-09-15T01:39:06.273Z,100332.09
2022-09-15T01:41:39.000Z,100332.88
2022-09-15T01:44:11.435Z,100330.25
2022-09-15T01:46:47.304Z,100328.97
2022-09-15T01:49:19.908Z,100327.13
2022-09-15T01:51:52.068Z,100329.75
2022-09-15T01:54:23.570Z,100323.72
2022-09-15T01:56:52.181Z,100312.97
2022-09-15T01:59:20.862Z,100310.88
2022-09-15T02:01:59.244Z,100308.25
2022-09-15T02:04:33.619Z,100312.72
2022-09-15T02:07:12.750Z,100305.88
2022-09-15T02:09:49.433Z,100299.03
2022-09-15T02:12:27.875Z,100301.66
2022-09-15T02:14:59.544Z,100301.66
2022-09-15T02:17:39.545Z,100305.63
2022-09-15T02:20:16.236Z,100311.94
2022-09-15T02:22:50.040Z,100304.03
2022-09-15T02:25:22.866Z,100294.09
2022-09-15T02:27:55.197Z,100296.16
2022-09-15T02:30:24.148Z,100280.94
2022-09-15T02:32:58.649Z,100275.94
2022-09-15T02:35:29.634Z,100275.16
2022-09-15T02:37:59.699Z,100285.41
2022-09-15T02:40:30.337Z,100296.72
2022-09-15T02:43:02.271Z,100296.97
2022-09-15T02:45:32.310Z,100288.28
2022-09-15T02:48:02.344Z,100284.63
2022-09-15T02:50:31.157Z,100291.47
2022-09-15T02:52:59.607Z,100288.28
2022-09-15T02:55:29.204Z,100291.72
2022-09-15T02:57:57.987Z,100283.84
2022-09-15T03:00:27.126Z,100270.16
2022-09-15T03:02:56.343Z,100279.88
2022-09-15T03:05:28.443Z,100270.16
2022-09-15T03:07:57.501Z,100266.75
2022-09-15T03:10:26.053Z,100269.81
2022-09-15T03:12:56.178Z,100259.03
2022-09-15T03:15:26.686Z,100250.41
2022-09-15T03:17:56.033Z,100240.97
2022-09-15T03:20:28.707Z,100236.28
2022-09-15T03:22:57.430Z,100222.34
2022-09-15T03:25:27.264Z,100229.69
2022-09-15T03:27:55.785Z,100235.97
2022-09-15T03:30:24.393Z,100239.94
2022-09-15T03:32:52.985Z,100231.53
2022-09-15T03:35:21.464Z,100238.34
2022-09-15T03:37:51.326Z,100238.09
2022-09-15T03:40:20.107Z,100231.56
2022-09-15T03:42:48.617Z,100232.59
2022-09-15T03:45:17.324Z,100227.09
2022-09-15T03:47:45.770Z,100231.03
2022-09-15T03:50:14.361Z,100236.28
2022-09-15T03:52:42.827Z,100233.91
2022-09-15T03:55:13.111Z,100221.81
2022-09-15T03:57:41.603Z,100223.91
2022-09-15T04:00:11.565Z,100229.09
2022-09-15T04:02:40.011Z,100221.97
2022-09-15T04:05:09.483Z,100236.06
2022-09-15T04:07:38.094Z,100242.06
2022-09-15T04:10:07.892Z,100234.91
2022-09-15T04:12:37.791Z,100238.53
2022-09-15T04:15:07.695Z,100237.44
2022-09-15T04:17:36.473Z,100239.00
2022-09-15T04:20:05.122Z,100231.06
2022-09-15T04:22:34.320Z,100233.66
2022-09-15T04:25:02.706Z,100233.88
2022-09-15T04:27:34.483Z,100236.97
2022-09-15T04:30:04.471Z,100234.53
2022-09-15T04:32:32.978Z,100225.63
2022-09-15T04:35:01.510Z,100213.53
2022-09-15T04:37:31.970Z,100216.97
2022-09-15T04:40:01.470Z,100207.75
2022-09-15T04:42:32.342Z,100205.13
2022-09-15T04:45:00.813Z,100210.63
2022-09-15T04:47:31.119Z,100210.88
2022-09-15T04:49:59.581Z,100210.06
2022-09-15T04:52:28.154Z,100210.31
2022-09-15T04:54:56.563Z,100220.03
2022-09-15T04:57:25.156Z,100215.03
2022-09-15T04:59:53.628Z,100205.56
2022-09-15T05:02:22.301Z,100213.44
2022-09-15T05:04:52.620Z,100202.94
2022-09-15T05:07:21.147Z,100199.53
2022-09-15T05:09:49.674Z,100196.13
2022-09-15T05:12:18.357Z,100192.72
2022-09-15T05:14:46.971Z,100200.31
2022-09-15T05:17:15.375Z,100180.38
2022-09-15T05:19:43.908Z,100175.13
2022-09-15T05:22:13.719Z,100179.59
2022-09-15T05:24:42.406Z,100186.66
2022-09-15T05:27:10.887Z,100186.66
2022-09-15T05:29:39.583Z,100181.97
2022-09-15T05:32:08.052Z,100176.72
2022-09-15T05:34:36.750Z,100184.84
2022-09-15T05:37:05.431Z,100188.25
2022-09-15T05:39:35.369Z,100191.91
2022-09-15T05:42:03.873Z,100182.47
2022-09-15T05:44:32.755Z,100176.44
2022-09-15T05:47:01.220Z,100177.47
2022-09-15T05:49:29.897Z,100171.84
2022-09-15T05:51:58.714Z,100170.03
2022-09-15T05:54:27.708Z,100169.03
2022-09-15T05:56:57.392Z,100172.91
2022-09-15T05:59:25.920Z,100168.16
2022-09-15T06:01:54.478Z,100167.91
2022-09-15T06:04:23.000Z,100173.69
2022-09-15T06:06:51.481Z,100180.88
2022-09-15T06:09:19.954Z,100187.72
2022-09-15T06:11:48.494Z,100179.59
2022-09-15T06:14:18.466Z,100172.75
2022-09-15T06:16:46.912Z,100172.50
2022-09-15T06:19:15.497Z,100165.69
2022-09-15T06:21:43.979Z,100168.31
2022-09-15T06:24:13.751Z,100153.38
2022-09-15T06:26:42.151Z,100158.38
2022-09-15T06:29:13.377Z,100148.66
2022-09-15T06:31:43.436Z,100150.50
2022-09-15T06:34:12.939Z,100147.63
2022-09-15T06:36:41.629Z,100143.66
2022-09-15T06:39:10.314Z,100147.88
2022-09-15T06:42:00.686Z,100138.41
2022-09-15T06:44:30.368Z,100135.25
2022-09-15T06:47:00.225Z,100135.81
2022-09-15T06:49:29.135Z,100143.13
2022-09-15T06:51:57.703Z,100143.13
2022-09-15T06:54:26.177Z,100148.13
2022-09-15T06:56:54.812Z,100149.72
2022-09-15T06:59:24.702Z,100163.38
2022-09-15T07:01:54.669Z,100158.66
2022-09-15T07:04:24.698Z,100161.03
2022-09-15T07:06:53.212Z,100165.50
2022-09-15T07:09:21.650Z,100160.25
2022-09-15T07:11:50.312Z,100149.75
2022-09-15T07:14:18.719Z,100153.16
2022-09-15T07:16:47.354Z,100152.38
2022-09-15T07:19:15.942Z,100156.84
2022-09-15T07:21:45.762Z,100148.97
2022-09-15T07:24:14.737Z,100146.34
2022-09-15T07:26:43.128Z,100153.16
2022-09-15T07:29:11.679Z,100157.38
2022-09-15T07:31:40.335Z,100146.88
2022-09-15T07:34:09.156Z,100148.47
2022-09-15T07:36:37.981Z,100141.13
2022-09-15T07:39:08.034Z,100136.94
2022-09-15T07:41:36.890Z,100134.59
2022-09-15T07:44:08.156Z,100124.91
2022-09-15T07:46:36.678Z,100125.94
2022-09-15T07:49:06.948Z,100109.41
2022-09-15T07:51:35.554Z,100105.75
2022-09-15T07:54:04.487Z,100093.44
2022-09-15T07:56:34.402Z,100089.50
2022-09-15T07:59:02.979Z,100088.47
2022-09-15T08:01:31.503Z,100086.63
2022-09-15T08:04:00.097Z,100084.00
2022-09-15T08:06:28.893Z,100079.56
2022-09-15T08:09:00.845Z,100082.97
2022-09-15T08:11:30.144Z,100086.63
2022-09-15T08:14:03.458Z,100078.28
2022-09-15T08:16:32.152Z,100074.84
2022-09-15T08:19:01.080Z,100070.41
2022-09-15T08:21:29.832Z,100070.41
2022-09-15T08:23:59.928Z,100065.16
2022-09-15T08:26:30.122Z,100058.88
2022-09-15T08:29:00.806Z,100066.72
2022-09-15T08:31:29.626Z,100059.13
2022-09-15T08:33:58.320Z,100066.19
2022-09-15T08:36:28.363Z,100060.94
2022-09-15T08:38:57.526Z,100073.81
2022-09-15T08:41:27.117Z,100072.97
2022-09-15T08:44:03.667Z,100072.44
2022-09-15T08:46:38.137Z,100069.31
2022-09-15T08:49:12.213Z,100071.69
2022-09-15T08:51:46.318Z,100070.91
2022-09-15T08:54:20.612Z,100068.81
2022-09-15T08:56:49.889Z,100075.66
2022-09-15T08:59:20.537Z,100071.41
2022-09-15T09:01:58.205Z,100067.44
2022-09-15T09:04:43.722Z,100071.41
2022-09-15T09:07:50.758Z,100069.56
2022-09-15T09:10:26.903Z,100064.56
2022-09-15T09:13:14.428Z,100048.34
2022-09-15T09:15:54.211Z,100053.56
2022-09-15T09:18:55.475Z,100053.06
2022-09-15T09:21:27.748Z,100052.00
2022-09-15T09:24:03.838Z,100059.63
2022-09-15T09:26:35.362Z,100051.50
2022-09-15T09:29:09.451Z,100045.22
2022-09-15T09:31:41.195Z,100042.59
2022-09-15T09:34:20.692Z,100044.41
2022-09-15T09:36:55.743Z,100051.50
2022-09-15T09:39:24.581Z,100055.94
2022-09-15T09:41:53.245Z,100054.66
2022-09-15T09:44:32.053Z,100054.66
2022-09-15T09:47:02.876Z,100054.66
2022-09-15T09:49:35.598Z,100041.78
2022-09-15T09:52:05.602Z,100041.78
2022-09-15T09:54:35.687Z,100045.75
2022-09-15T09:57:29.395Z,100049.69
2022-09-15T09:59:58.196Z,100053.88
2022-09-15T10:02:29.264Z,100054.66
2022-09-15T10:05:20.017Z,100049.69
2022-09-15T10:07:48.900Z,100054.66
2022-09-15T10:10:23.187Z,100054.66
2022-09-15T10:12:56.601Z,100040.22
2022-09-15T10:15:27.417Z,100038.13
2022-09-15T10:17:58.426Z,100043.38
2022-09-15T10:20:32.831Z,100040.22
2022-09-15T10:23:07.542Z,100039.97
2022-09-15T10:28:28.822Z,100039.72
2022-09-15T10:31:05.569Z,100042.09
2022-09-15T10:33:36.664Z,100040.25
2022-09-15T10:36:08.238Z,100047.31
2022-09-15T10:38:44.147Z,100043.66
2022-09-15T10:41:22.111Z,100044.97
2022-09-15T10:44:15.822Z,100046.00
2022-09-15T10:46:56.000Z,100052.00
2022-09-15T10:49:50.228Z,100057.25
2022-09-15T10:52:29.516Z,100054.09
2022-09-15T10:55:31.860Z,100050.91
2022-09-15T10:58:25.750Z,100061.66
2022-09-15T11:01:05.345Z,100057.47
2022-09-15T11:04:00.291Z,100053.25
2022-09-15T11:06:36.742Z,100045.38
2022-09-15T11:09:16.111Z,100028.59
2022-09-15T11:11:56.328Z,100022.56
2022-09-15T11:14:39.893Z,100020.75
2022-09-15T11:17:22.985Z,100018.38
2022-09-15T11:20:15.242Z,100018.91
2022-09-15T11:22:50.668Z,100007.88
2022-09-15T11:25:21.690Z,100015.50
2022-09-15T11:27:54.603Z,100011.03
2022-09-15T11:30:25.622Z,100010.25
2022-09-15T11:33:00.347Z,100011.03
2022-09-15T11:35:41.797Z,100001.34
2022-09-15T11:38:22.883Z,100005.78
2022-09-15T11:40:56.495Z,100004.22
2022-09-15T11:43:34.496Z,100000.00
2022-09-15T11:46:09.508Z,99999.47
2022-09-15T11:48:44.912Z,100001.03
2022-09-15T11:51:16.943Z,100008.38
2022-09-15T11:53:51.763Z,100012.59
2022-09-15T11:56:25.670Z,100011.25
2022-09-15T11:59:06.761Z,100017.28
2022-09-15T12:01:45.370Z,100009.91
2022-09-15T12:04:21.870Z,100015.16
2022-09-15T12:06:54.878Z,100005.72
2022-09-15T12:09:25.009Z,100001.25
2022-09-15T12:11:58.467Z,100012.00
2022-09-15T12:14:33.619Z,100008.59
2022-09-15T12:17:03.406Z,100010.16
2022-09-15T12:19:50.142Z,100009.66
2022-09-15T12:22:24.212Z,100014.13
2022-09-15T12:25:01.577Z,100010.22
2022-09-15T12:27:31.997Z,100006.00
2022-09-15T12:30:01.725Z,100002.63
2022-09-15T12:32:33.485Z,100001.59
2022-09-15T12:35:13.332Z,99997.91
2022-09-15T12:37:45.354Z,99995.28
2022-09-15T12:40:35.182Z,99990.59
2022-09-15T12:43:05.589Z,99995.00
2022-09-15T12:45:37.161Z,99990.56
2022-09-15T12:48:08.377Z,99995.00
2022-09-15T12:50:39.788Z,99998.97
2022-09-15T12:53:20.348Z,99989.25
2022-09-15T12:55:55.544Z,99993.72
2022-09-15T12:58:30.478Z,99993.47
2022-09-15T13:01:37.585Z,100000.28
2022-09-15T13:04:50.642Z,100002.13
2022-09-15T13:07:37.010Z,100007.88
2022-09-15T13:10:31.854Z,100009.44
2022-09-15T13:13:17.446Z,100016.00
2022-09-15T13:15:50.378Z,100020.44
2022-09-15T13:18:21.599Z,100012.59
2022-09-15T13:21:00.046Z,100012.06
2022-09-15T13:23:30.030Z,100016.53
2022-09-15T13:26:01.358Z,100022.03
2022-09-15T13:28:31.414Z,100023.63
2022-09-15T13:31:18.772Z,100034.66
2022-09-15T13:40:34.889Z,100037.50
2022-09-15T13:43:23.639Z,100030.94
2022-09-15T13:46:04.280Z,100036.19
2022-09-15T13:48:49.975Z,100024.41
2022-09-15T13:51:25.244Z,100022.81
2022-09-15T13:53:57.888Z,100038.31
2022-09-15T13:56:28.961Z,100041.72
2022-09-15T13:59:14.500Z,100046.16
2022-09-15T14:01:46.295Z,100043.00
2022-09-15T14:04:17.905Z,100057.72
2022-09-15T14:06:48.430Z,100050.63
2022-09-15T14:09:19.710Z,100049.59
2022-09-15T14:11:50.428Z,100059.28
2022-09-15T14:14:37.260Z,100050.13
2022-09-15T14:17:07.950Z,100045.38
2022-09-15T14:19:38.157Z,100048.78
2022-09-15T14:22:26.278Z,100050.13
2022-09-15T14:24:56.714Z,100046.72
2022-09-15T14:27:27.545Z,100048.28
2022-09-15T14:29:58.062Z,100043.03
2022-09-15T14:32:29.861Z,100050.66
2022-09-15T14:35:01.894Z,100053.03
2022-09-15T14:37:32.783Z,100059.06
2022-09-15T14:40:03.312Z,100056.44
2022-09-15T14:42:37.564Z,100052.00
2022-09-15T14:48:18.637Z,100051.75
2022-09-15T14:50:57.598Z,100053.06
2022-09-15T14:53:28.431Z,100057.28
2022-09-15T14:56:07.090Z,100043.91
2022-09-15T14:58:38.800Z,100040.00
2022-09-15T15:01:15.809Z,100039.22
2022-09-15T15:03:52.105Z,100044.19
2022-09-15T15:06:28.732Z,100040.00
2022-09-15T15:09:03.237Z,100037.13
2022-09-15T15:11:33.149Z,100033.72
2022-09-15T15:14:03.104Z,100041.56
2022-09-15T15:16:33.005Z,100034.50
2022-09-15T15:19:03.070Z,100038.16
2022-09-15T15:21:40.390Z,100036.34
2022-09-15T15:24:16.256Z,100035.53
2022-09-15T15:26:46.136Z,100044.19
2022-09-15T15:29:39.352Z,100046.81
2022-09-15T15:32:13.077Z,100043.38
2022-09-15T15:34:50.095Z,100047.56
2022-09-15T15:37:26.997Z,100056.75
2022-09-15T15:39:57.402Z,100059.38
2022-09-15T15:42:28.826Z,100057.28
2022-09-15T15:45:20.923Z,100062.53
2022-09-15T15:47:49.940Z,100070.91
2022-09-15T15:50:22.066Z,100066.19
2022-09-15T15:52:51.199Z,100070.66
2022-09-15T15:55:20.391Z,100064.56
2022-09-15T15:57:51.168Z,100065.06
2022-09-15T16:00:23.074Z,100060.13
2022-09-15T16:02:52.388Z,100054.09
2022-09-15T16:05:26.552Z,100060.91
2022-09-15T16:07:57.199Z,100056.69
2022-09-15T16:10:30.933Z,100048.84
2022-09-15T16:12:59.557Z,100042.78
2022-09-15T16:15:28.417Z,100046.47
2022-09-15T16:17:56.988Z,100053.53
2022-09-15T16:20:28.505Z,100049.09
2022-09-15T16:22:57.041Z,100054.59
2022-09-15T16:25:35.492Z,100054.59
2022-09-15T16:28:04.921Z,100053.00
2022-09-15T16:30:34.219Z,100049.09
2022-09-15T16:33:02.866Z,100055.91
2022-09-15T16:35:39.453Z,100043.59
2022-09-15T16:38:08.715Z,100048.03
2022-09-15T16:40:38.178Z,100041.50
2022-09-15T16:43:13.703Z,100051.50
2022-09-15T16:45:42.305Z,100061.75
2022-09-15T16:48:11.222Z,100066.47
2022-09-15T16:50:50.347Z,100073.31
2022-09-15T16:53:31.291Z,100074.91
2022-09-15T16:56:00.199Z,100068.31
2022-09-15T16:58:28.884Z,100073.81
2022-09-15T17:00:58.360Z,100072.28
2022-09-15T17:03:28.016Z,100066.78
2022-09-15T17:05:59.708Z,100072.56
2022-09-15T17:08:29.976Z,100063.38
2022-09-15T17:10:59.551Z,100057.09
2022-09-15T17:13:30.479Z,100062.09
2022-09-15T17:16:00.289Z,100076.81
2022-09-15T17:18:29.716Z,100071.28
2022-09-15T17:21:00.173Z,100071.28
2022-09-15T17:23:31.612Z,100056.34
2022-09-15T17:26:02.347Z,100074.47
2022-09-15T17:28:32.821Z,100074.22
2022-09-15T17:31:03.246Z,100074.22
2022-09-15T17:33:33.317Z,100076.84
2022-09-15T17:36:04.024Z,100084.72
2022-09-15T17:38:33.105Z,100081.84
2022-09-15T17:41:01.708Z,100084.41
2022-09-15T17:43:33.071Z,100092.00
2022-09-15T17:46:01.857Z,100094.38
2022-09-15T17:48:30.442Z,100095.69
2022-09-15T17:51:01.230Z,100099.91
2022-09-15T17:53:31.577Z,100094.41
2022-09-15T17:56:00.341Z,100092.31
2022-09-15T17:58:31.532Z,100086.03
2022-09-15T18:01:00.890Z,100080.53
2022-09-15T18:03:33.353Z,100087.63
2022-09-15T18:06:05.461Z,100085.78
2022-09-15T18:08:36.498Z,100085.78
2022-09-15T18:11:06.763Z,100080.53
2022-09-15T18:13:36.410Z,100077.94
2022-09-15T18:16:07.151Z,100077.94
2022-09-15T18:18:36.534Z,100075.31
2022-09-15T18:21:10.016Z,100075.31
2022-09-15T18:23:42.593Z,100073.19
2022-09-15T18:26:11.401Z,100076.88
2022-09-15T18:28:40.258Z,100078.69
2022-09-15T18:31:09.256Z,100072.94
2022-09-15T18:33:37.964Z,100085.28
2022-09-15T18:36:08.739Z,100085.28
2022-09-15T18:38:37.679Z,100093.69
2022-09-15T18:41:11.933Z,100081.63
2022-09-15T18:43:40.718Z,100077.69
2022-09-15T18:46:09.385Z,100083.19
2022-09-15T18:48:38.000Z,100077.16
2022-09-15T18:51:10.001Z,100082.41
2022-09-15T18:53:38.746Z,100076.38
2022-09-15T18:56:12.702Z,100083.19
2022-09-15T18:58:41.767Z,100090.28
2022-09-15T19:01:10.307Z,100093.13
2022-09-15T19:03:44.078Z,100090.47
2022-09-15T19:06:13.061Z,100082.88
2022-09-15T19:08:41.659Z,100072.91
2022-09-15T19:11:11.673Z,100074.50
2022-09-15T19:13:40.249Z,100074.00
2022-09-15T19:16:10.005Z,100069.00
2022-09-15T19:18:39.056Z,100066.13
2022-09-15T19:21:08.385Z,100054.78
2022-09-15T19:23:36.987Z,100053.22
2022-09-15T19:26:07.200Z,100051.66
2022-09-15T19:28:37.140Z,100045.63
2022-09-15T19:31:06.153Z,100044.59
2022-09-15T19:33:34.393Z,100048.47
2022-09-15T19:36:24.527Z,100054.22
2022-09-15T19:38:52.726Z,100052.94
2022-09-15T19:41:21.197Z,100052.69
2022-09-15T19:43:51.152Z,100054.78
2022-09-15T19:46:24.185Z,100053.50
2022-09-15T19:48:53.377Z,100056.13
2022-09-15T19:51:22.953Z,100055.09
2022-09-15T19:53:55.119Z,100054.81
2022-09-15T19:56:26.322Z,100051.16
2022-09-15T19:58:57.869Z,100044.09
2022-09-15T20:01:28.641Z,100048.81
2022-09-15T20:03:58.832Z,100053.81
2022-09-15T20:06:32.266Z,100035.69
2022-09-15T20:09:02.395Z,100045.16
2022-09-15T20:11:32.787Z,100033.88
2022-09-15T20:14:04.245Z,100029.66
2022-09-15T20:16:33.498Z,100039.63
2022-09-15T20:19:04.119Z,100038.84
2022-09-15T20:21:51.648Z,100037.00
2022-09-15T20:24:22.555Z,100041.72
2022-09-15T20:26:52.054Z,100047.22
2022-09-15T20:29:24.451Z,100049.59
2022-09-15T20:31:54.091Z,100051.66
2022-09-15T20:34:23.159Z,100036.97
2022-09-15T20:36:52.274Z,100041.41
2022-09-15T20:39:23.092Z,100036.97
2022-09-15T20:41:52.630Z,100036.97
2022-09-15T20:44:23.356Z,100033.31
2022-09-15T20:46:52.416Z,100040.38
2022-09-15T20:49:21.495Z,100025.13
2022-09-15T20:51:52.283Z,100027.44
2022-09-15T20:54:21.493Z,100025.38
2022-09-15T20:56:50.761Z,100024.31
2022-09-15T20:59:19.467Z,100024.28
2022-09-15T21:01:49.943Z,100019.00
2022-09-15T21:04:19.240Z,100019.28
2022-09-15T21:06:48.021Z,100014.31
2022-09-15T21:09:17.467Z,100019.53
2022-09-15T21:11:50.151Z,100022.16
2022-09-15T21:14:21.631Z,100017.72
2022-09-15T21:16:51.535Z,100013.78
2022-09-15T21:19:20.125Z,100011.97
2022-09-15T21:21:49.093Z,100014.59
2022-09-15T21:24:17.424Z,100013.75
2022-09-15T21:27:14.974Z,100011.09
2022-09-15T21:29:43.581Z,100002.72
2022-09-15T21:32:13.496Z,99990.16
2022-09-15T21:34:42.198Z,99994.09
2022-09-15T21:37:11.194Z,99990.44
2022-09-15T21:39:39.732Z,99984.69
2022-09-15T21:42:10.272Z,99990.72
2022-09-15T21:44:39.045Z,99982.84
2022-09-15T21:47:07.549Z,99989.69
2022-09-15T21:49:37.643Z,99989.94
2022-09-15T21:52:06.297Z,99983.88
2022-09-15T21:57:03.116Z,99974.44
2022-09-15T21:59:31.564Z,99974.44
2022-09-15T22:02:00.252Z,99983.09
2022-09-15T22:04:28.841Z,99977.06
2022-09-15T22:06:58.760Z,99963.94
2022-09-15T22:11:55.510Z,99974.69
2022-09-15T22:14:24.070Z,99974.94
2022-09-15T22:16:52.696Z,99965.25
2022-09-15T22:19:21.668Z,99961.81
2022-09-15T22:21:50.276Z,99968.66
2022-09-15T22:24:20.343Z,99975.75
2022-09-15T22:26:49.036Z,99976.53
2022-09-15T22:29:17.810Z,99982.03
2022-09-15T22:31:46.318Z,99988.59
2022-09-15T22:34:15.106Z,99988.06
2022-09-15T22:36:43.571Z,99983.06
2022-09-15T22:39:13.465Z,99988.56
2022-09-15T22:41:43.358Z,99987.78
2022-09-15T22:44:19.983Z,99981.50
2022-09-15T22:46:49.799Z,99986.19
2022-09-15T22:49:18.405Z,99978.59
2022-09-15T22:51:46.984Z,99973.34
2022-09-15T22:54:15.836Z,99978.84
2022-09-15T22:56:47.035Z,99976.22
2022-09-15T22:59:15.774Z,99978.84
2022-09-15T23:01:44.926Z,99972.00
2022-09-15T23:04:13.483Z,99968.34
2022-09-15T23:06:41.936Z,99968.34
2022-09-15T23:09:12.056Z,99962.84
2022-09-15T23:11:41.383Z,99968.09
2022-09-15T23:14:15.828Z,99967.03
2022-09-15T23:16:44.902Z,99977.53
2022-09-15T23:19:13.475Z,99972.25
2022-09-15T23:21:42.247Z,99964.91
2022-09-15T23:24:12.613Z,99964.66
2022-09-15T23:26:41.182Z,99968.59
2022-09-15T23:29:10.227Z,99971.22
2022-09-15T23:31:40.235Z,99961.53
2022-09-15T23:34:08.734Z,99952.06
2022-09-15T23:36:37.208Z,99948.66
2022-09-15T23:39:05.692Z,99942.63
2022-09-15T23:41:34.210Z,99935.78
2022-09-15T23:44:02.908Z,99935.78
2022-09-15T23:46:31.612Z,99947.06
2022-09-15T23:49:02.188Z,99949.69
2022-09-15T23:51:31.260Z,99951.53
2022-09-15T23:53:59.719Z,99948.66
2022-09-15T23:56:28.492Z,99939.22
2022-09-15T23:58:57.148Z,99947.88
